Pagina principale
METAR-TAF:

METAR-TAF

Aeroporti :

Aeroporto di Barcellona-El Prat

Barcellona, Spagna

latitudine: 41-17N, longitudine: 002-04E, altezza: 4 m

Osservazione

Il bollettino è stato emesso 17 minuti fa, alle 17:30 UTC
Vento 5 kt da sud/sud-est, variando fra sud-est e sud/sud-ovest
Temperature 22°C
Umidità 65%
Pressione 1013 hPa
Visibilità 10 km o più
Poco nuvoloso ad un'altezza di 2500 ft

METAR: LEBL 311730Z 16005KT 130V200 9999 FEW025 22/15 Q1013 NOSIG

Ora: 19:47 (17:47 UTC)

Previsione

Il bollettino è stato emesso 47 minuti fa, alle 17:00 UTC
Previsione valida dal 31 alle 18 UTC al 01 alle 18 UTC
Vento 10 kt da sud
Visibilità 10 km o più
Poco nuvoloso ad un'altezza di 2000 ft
Evoluzione graduale
dal 31 alle 19 UTC al 31 alle 21 UTC
Vento 8 kt da nord
Evoluzione graduale
dal 01 alle 06 UTC al 01 alle 08 UTC
Vento 8 kt da est/sud-est

TAF: LEBL 311700Z 3118/0118 18010KT 9999 FEW020 TX25/0112Z TN18/0106Z BECMG 3119/3121 36008KT BECMG 0106/0108 12008KT

Osservazioni e previsioni meteorologiche di più di 4000 aeroporti (messaggi METAR e TAF).

Le stazioni disponibili sono rappresentate dai dischi gialli e rossi sulla carta.

Puntare il mouse per vedere il nome della stazione.

Clicca sopra per visualizzare le osservazioni e previsioni meteorologiche.

Per cambiare la mappa : fare clic sui pulsanti verdi con una croce nera per ingrandire, il pulsante verde con un trattino per diminuire, o sulla freccia verde per le mappe adiacenti.


METAR-TAF: